createdAt,value
2019-02-16T00:00:46.583Z,14.78
2019-02-16T00:03:15.474Z,14.23
2019-02-16T00:05:44.175Z,14.53
2019-02-16T00:08:12.744Z,14.36
2019-02-16T00:10:41.320Z,14.51
2019-02-16T00:13:09.987Z,14.83
2019-02-16T00:15:38.866Z,13.98
2019-02-16T00:18:07.765Z,13.66
2019-02-16T00:20:36.364Z,13.96
2019-02-16T00:23:05.449Z,14.54
2019-02-16T00:25:34.067Z,14.91
2019-02-16T00:28:02.643Z,14.93
2019-02-16T00:30:31.214Z,14.08
2019-02-16T00:32:59.802Z,14.13
2019-02-16T00:35:28.393Z,15.32
2019-02-16T00:37:56.959Z,14.32
2019-02-16T00:40:25.546Z,14.55
2019-02-16T00:42:54.122Z,15.06
2019-02-16T00:45:22.708Z,15.20
2019-02-16T00:47:51.273Z,14.84
2019-02-16T00:50:19.881Z,14.55
2019-02-16T00:52:48.457Z,14.47
2019-02-16T00:55:17.302Z,14.25
2019-02-16T00:57:45.855Z,14.25
2019-02-16T01:00:14.517Z,14.17
2019-02-16T01:02:43.361Z,13.48
2019-02-16T01:05:12.030Z,13.55
2019-02-16T01:07:40.580Z,13.55
2019-02-16T01:10:09.546Z,14.09
2019-02-16T01:12:38.130Z,13.90
2019-02-16T01:15:08.256Z,13.92
2019-02-16T01:17:36.833Z,14.26
2019-02-16T01:20:07.300Z,15.11
2019-02-16T01:22:36.212Z,15.11
2019-02-16T01:25:05.242Z,14.22
2019-02-16T01:27:33.819Z,14.06
2019-02-16T01:30:02.402Z,14.18
2019-02-16T01:32:31.297Z,14.18
2019-02-16T01:35:00.128Z,13.45
2019-02-16T01:37:29.059Z,13.45
2019-02-16T01:39:57.646Z,13.56
2019-02-16T01:42:26.338Z,13.12
2019-02-16T01:44:55.384Z,13.12
2019-02-16T01:47:24.047Z,13.75
2019-02-16T01:49:52.843Z,14.22
2019-02-16T01:52:21.467Z,14.22
2019-02-16T01:54:50.116Z,14.75
2019-02-16T01:57:18.711Z,13.90
2019-02-16T01:59:47.299Z,13.90
2019-02-16T02:02:15.886Z,14.35
2019-02-16T02:04:44.449Z,13.62
2019-02-16T02:07:13.286Z,13.62
2019-02-16T02:09:41.910Z,13.18
2019-02-16T02:12:10.470Z,13.47
2019-02-16T02:14:39.056Z,12.89
2019-02-16T02:17:07.628Z,13.03
2019-02-16T02:19:36.646Z,13.03
2019-02-16T02:22:05.481Z,12.95
2019-02-16T02:24:34.105Z,12.90
2019-02-16T02:27:02.671Z,12.52
2019-02-16T02:29:31.411Z,13.41
2019-02-16T02:32:00.003Z,13.41
2019-02-16T02:34:28.797Z,13.53
2019-02-16T02:36:57.619Z,13.45
2019-02-16T02:39:26.218Z,13.92
2019-02-16T02:41:54.896Z,13.85
2019-02-16T02:44:23.479Z,14.71
2019-02-16T02:46:52.057Z,14.52
2019-02-16T02:49:20.631Z,14.19
2019-02-16T02:51:52.236Z,14.23
2019-02-16T02:54:19.757Z,14.38
2019-02-16T02:56:48.330Z,14.51
2019-02-16T02:59:16.898Z,14.72
2019-02-16T03:01:45.488Z,14.66
2019-02-16T03:04:14.066Z,14.76
2019-02-16T03:06:42.651Z,14.22
2019-02-16T03:09:11.244Z,14.67
2019-02-16T03:11:39.805Z,14.67
2019-02-16T03:14:08.386Z,14.87
2019-02-16T03:16:36.947Z,14.36
2019-02-16T03:19:05.557Z,14.42
2019-02-16T03:21:34.139Z,14.21
2019-02-16T03:24:02.983Z,13.42
2019-02-16T03:26:41.821Z,13.82
2019-02-16T03:29:41.368Z,13.59
2019-02-16T03:32:51.821Z,14.17
2019-02-16T03:35:46.272Z,14.02
2019-02-16T03:38:48.867Z,14.17
2019-02-16T03:41:17.691Z,13.77
2019-02-16T03:43:46.281Z,13.09
2019-02-16T03:46:14.883Z,13.07
2019-02-16T03:48:43.725Z,12.66
2019-02-16T03:51:12.305Z,12.43
2019-02-16T03:53:40.914Z,12.82
2019-02-16T03:56:09.546Z,13.24
2019-02-16T03:58:38.143Z,13.24
2019-02-16T04:01:06.712Z,13.79
2019-02-16T04:03:35.304Z,13.79
2019-02-16T04:06:03.914Z,14.02
2019-02-16T04:08:32.514Z,13.03
2019-02-16T04:11:01.077Z,13.43
2019-02-16T04:13:29.940Z,13.62
2019-02-16T04:15:58.749Z,13.60
2019-02-16T04:18:27.559Z,13.53
2019-02-16T04:20:56.141Z,13.23
2019-02-16T04:23:24.772Z,13.02
2019-02-16T04:25:53.381Z,13.45
2019-02-16T04:28:21.969Z,13.31
2019-02-16T04:30:50.555Z,13.31
2019-02-16T04:33:19.120Z,12.89
2019-02-16T04:35:47.731Z,12.90
2019-02-16T04:38:16.597Z,12.28
2019-02-16T04:40:45.213Z,12.35
2019-02-16T04:43:13.832Z,11.95
2019-02-16T04:45:42.459Z,11.85
2019-02-16T04:48:11.089Z,11.83
2019-02-16T04:50:39.732Z,11.65
2019-02-16T04:53:08.316Z,11.24
2019-02-16T04:55:37.018Z,11.68
2019-02-16T04:58:05.595Z,11.91
2019-02-16T05:00:34.169Z,12.64
2019-02-16T05:03:02.775Z,13.01
2019-02-16T05:05:31.345Z,12.39
2019-02-16T05:07:59.950Z,12.16
2019-02-16T05:10:28.646Z,11.85
2019-02-16T05:12:57.246Z,13.04
2019-02-16T05:15:25.828Z,12.37
2019-02-16T05:17:54.461Z,12.02
2019-02-16T05:20:23.188Z,12.40
2019-02-16T05:22:51.814Z,12.43
2019-02-16T05:25:20.750Z,12.38
2019-02-16T05:27:49.363Z,12.48
2019-02-16T05:30:18.080Z,12.32
2019-02-16T05:32:46.709Z,12.32
2019-02-16T05:35:15.313Z,12.16
2019-02-16T05:37:43.909Z,12.17
2019-02-16T05:40:12.765Z,12.87
2019-02-16T05:42:41.385Z,12.91
2019-02-16T05:45:10.142Z,12.86
2019-02-16T05:47:38.748Z,12.83
2019-02-16T05:50:07.394Z,12.39
2019-02-16T05:52:36.235Z,11.83
2019-02-16T05:55:04.917Z,11.84
2019-02-16T05:57:33.764Z,11.78
2019-02-16T06:00:02.406Z,11.61
2019-02-16T06:02:31.036Z,12.64
2019-02-16T06:04:59.928Z,12.75
2019-02-16T06:07:28.515Z,12.88
2019-02-16T06:09:57.139Z,12.50
2019-02-16T06:12:25.724Z,12.64
2019-02-16T06:14:54.593Z,12.44
2019-02-16T06:17:23.166Z,12.69
2019-02-16T06:19:51.754Z,12.86
2019-02-16T06:22:20.344Z,12.71
2019-02-16T06:24:49.020Z,12.71
2019-02-16T06:27:17.643Z,12.46
2019-02-16T06:29:46.296Z,12.71
2019-02-16T06:32:14.892Z,12.85
2019-02-16T06:34:43.744Z,12.40
2019-02-16T06:37:22.607Z,12.21
2019-02-16T06:39:51.626Z,12.32
2019-02-16T06:42:20.307Z,11.56
2019-02-16T06:44:48.896Z,11.98
2019-02-16T06:47:17.493Z,12.17
2019-02-16T06:49:46.085Z,12.29
2019-02-16T06:52:14.696Z,11.99
2019-02-16T06:54:43.393Z,12.23
2019-02-16T06:57:29.106Z,12.26
2019-02-16T06:59:57.726Z,12.24
2019-02-16T07:02:27.912Z,12.28
2019-02-16T07:04:56.532Z,12.16
2019-02-16T07:07:25.412Z,12.15
2019-02-16T07:09:54.030Z,12.31
2019-02-16T07:12:22.771Z,12.22
2019-02-16T07:14:51.355Z,12.39
2019-02-16T07:17:35.594Z,12.32
2019-02-16T07:20:04.484Z,12.35
2019-02-16T07:22:33.086Z,12.41
2019-02-16T07:25:01.726Z,12.39
2019-02-16T07:27:30.304Z,12.20
2019-02-16T07:29:58.897Z,12.35
2019-02-16T07:32:27.543Z,12.44
2019-02-16T07:34:56.177Z,12.41
2019-02-16T07:37:24.776Z,12.42
2019-02-16T07:39:53.362Z,12.62
2019-02-16T07:42:22.050Z,13.37
2019-02-16T07:44:58.461Z,13.82
2019-02-16T07:47:48.935Z,14.07
2019-02-16T07:50:26.457Z,14.21
2019-02-16T07:53:32.390Z,14.28
2019-02-16T07:56:05.938Z,13.96
2019-02-16T07:58:52.414Z,14.21
2019-02-16T08:01:42.692Z,14.18
2019-02-16T08:04:20.746Z,14.61
2019-02-16T08:07:07.356Z,14.67
2019-02-16T08:09:53.424Z,15.26
2019-02-16T08:12:41.400Z,16.08
2019-02-16T08:15:41.393Z,16.08
2019-02-16T08:18:35.066Z,16.50
2019-02-16T08:21:22.867Z,16.77
2019-02-16T08:24:22.647Z,16.86
2019-02-16T08:26:58.370Z,17.19
2019-02-16T08:29:39.099Z,17.53
2019-02-16T08:32:29.130Z,17.54
2019-02-16T08:35:06.048Z,17.38
2019-02-16T08:37:44.348Z,17.41
2019-02-16T08:40:22.489Z,17.81
2019-02-16T08:43:03.210Z,17.62
2019-02-16T08:45:47.122Z,18.13
2019-02-16T08:48:37.772Z,18.33
2019-02-16T08:51:15.944Z,19.07
2019-02-16T08:53:51.566Z,19.65
2019-02-16T08:56:39.496Z,19.60
2019-02-16T08:59:23.328Z,20.99
2019-02-16T09:02:01.523Z,21.47
2019-02-16T09:04:40.796Z,22.41
2019-02-16T09:07:16.510Z,24.42
2019-02-16T09:10:06.038Z,26.22
2019-02-16T09:12:56.600Z,25.93
2019-02-16T09:15:35.024Z,26.98
2019-02-16T09:18:34.795Z,27.21
2019-02-16T09:21:26.140Z,27.33
2019-02-16T09:24:04.980Z,26.80
2019-02-16T09:26:51.263Z,27.10
2019-02-16T09:29:28.291Z,27.94
2019-02-16T09:32:06.026Z,27.99
2019-02-16T09:35:02.384Z,27.31
2019-02-16T09:37:59.122Z,27.10
2019-02-16T09:40:58.827Z,26.31
2019-02-16T09:43:49.387Z,25.85
2019-02-16T09:46:27.204Z,26.12
2019-02-16T09:49:21.747Z,26.18
2019-02-16T09:52:08.213Z,25.04
2019-02-16T09:54:54.347Z,24.90
2019-02-16T09:57:43.414Z,25.15
2019-02-16T10:00:29.876Z,25.53
2019-02-16T10:03:20.620Z,25.56
2019-02-16T10:06:06.808Z,25.23
2019-02-16T10:08:54.434Z,25.31
2019-02-16T10:11:30.347Z,25.18
2019-02-16T10:14:12.527Z,26.25
2019-02-16T10:16:47.478Z,26.27
2019-02-16T10:19:37.246Z,26.56
2019-02-16T10:22:27.437Z,26.58
2019-02-16T10:25:01.717Z,26.78
2019-02-16T10:27:49.367Z,27.37
2019-02-16T10:30:29.294Z,27.78
2019-02-16T10:33:09.873Z,27.74
2019-02-16T10:35:50.311Z,27.72
2019-02-16T10:38:36.686Z,28.77
2019-02-16T10:41:27.329Z,28.16
2019-02-16T10:44:17.743Z,28.51
2019-02-16T10:47:05.313Z,27.64
2019-02-16T10:49:39.459Z,27.79
2019-02-16T10:52:17.961Z,26.41
2019-02-16T10:55:05.862Z,25.82
2019-02-16T10:57:45.882Z,26.51
2019-02-16T11:00:26.707Z,26.90
2019-02-16T11:03:04.076Z,25.00
2019-02-16T11:05:43.356Z,24.29
2019-02-16T11:08:36.850Z,23.03
2019-02-16T11:11:18.699Z,22.77
2019-02-16T11:14:15.603Z,22.97
2019-02-16T11:17:21.702Z,22.72
2019-02-16T11:20:02.329Z,22.58
2019-02-16T11:22:39.564Z,22.69
2019-02-16T11:25:27.222Z,21.26
2019-02-16T11:28:20.767Z,22.34
2019-02-16T11:31:03.588Z,21.68
2019-02-16T11:33:50.045Z,21.19
2019-02-16T11:36:25.242Z,21.72
2019-02-16T11:39:15.932Z,21.18
2019-02-16T11:42:01.974Z,20.90
2019-02-16T11:44:58.846Z,21.50
2019-02-16T11:47:53.597Z,21.75
2019-02-16T11:50:59.119Z,21.73
2019-02-16T11:53:34.436Z,20.49
2019-02-16T11:56:29.556Z,20.67
2019-02-16T11:59:12.989Z,20.95
2019-02-16T12:01:59.099Z,20.98
2019-02-16T12:04:39.608Z,21.85
2019-02-16T12:07:16.786Z,22.22
2019-02-16T12:10:01.197Z,24.03
2019-02-16T12:12:46.892Z,25.65
2019-02-16T12:15:25.703Z,27.93
2019-02-16T12:18:00.933Z,28.59
2019-02-16T12:20:47.079Z,29.24
2019-02-16T12:23:25.735Z,30.42
2019-02-16T12:26:18.794Z,30.46
2019-02-16T12:29:12.722Z,31.16
2019-02-16T12:31:59.115Z,31.71
2019-02-16T12:34:35.579Z,30.43
2019-02-16T12:37:26.313Z,29.89
2019-02-16T12:40:01.556Z,29.73
2019-02-16T12:42:39.029Z,30.57
2019-02-16T12:45:33.285Z,30.73
2019-02-16T12:48:21.324Z,29.83
2019-02-16T12:51:00.278Z,29.63
2019-02-16T12:53:46.686Z,29.62
2019-02-16T12:56:21.881Z,29.81
2019-02-16T12:59:01.208Z,28.70
2019-02-16T13:01:54.989Z,29.30
2019-02-16T13:04:41.327Z,29.48
2019-02-16T13:07:27.695Z,28.84
2019-02-16T13:10:08.763Z,29.79
2019-02-16T13:12:50.245Z,29.15
2019-02-16T13:15:38.455Z,28.74
2019-02-16T13:18:19.979Z,30.00
2019-02-16T13:21:10.524Z,29.62
2019-02-16T13:23:52.784Z,29.26
2019-02-16T13:26:30.405Z,29.42
2019-02-16T13:29:16.515Z,28.68
2019-02-16T13:32:00.665Z,27.67
2019-02-16T13:34:51.210Z,25.88
2019-02-16T13:37:34.172Z,23.99
2019-02-16T13:40:21.805Z,24.31
2019-02-16T13:43:03.552Z,23.89
2019-02-16T13:45:51.183Z,23.39
2019-02-16T13:48:47.703Z,23.88
2019-02-16T13:51:34.043Z,23.73
2019-02-16T13:54:11.115Z,23.58
2019-02-16T13:57:04.887Z,22.96
2019-02-16T13:59:52.587Z,23.63
2019-02-16T14:02:31.213Z,23.27
2019-02-16T14:05:18.908Z,23.24
2019-02-16T14:07:58.549Z,23.10
2019-02-16T14:10:44.680Z,23.34
2019-02-16T14:13:32.322Z,23.12
2019-02-16T14:16:18.301Z,22.81
2019-02-16T14:18:47.082Z,22.81
2019-02-16T14:21:15.684Z,22.30
2019-02-16T14:23:44.274Z,21.80
2019-02-16T14:26:12.886Z,21.62
2019-02-16T14:28:41.497Z,21.99
2019-02-16T14:31:10.352Z,21.70
2019-02-16T14:33:38.936Z,21.46
2019-02-16T14:36:07.774Z,21.81
2019-02-16T14:38:48.187Z,21.12
2019-02-16T14:41:16.773Z,21.49
2019-02-16T14:43:45.675Z,21.07
2019-02-16T14:46:14.308Z,20.96
2019-02-16T14:48:43.175Z,20.99
2019-02-16T14:51:11.787Z,20.97
2019-02-16T14:53:41.070Z,21.08
2019-02-16T14:56:09.631Z,20.61
2019-02-16T14:58:38.297Z,20.50
2019-02-16T15:01:06.911Z,20.35
2019-02-16T15:03:35.516Z,20.40
2019-02-16T15:06:05.131Z,20.23
2019-02-16T15:08:33.708Z,20.28
2019-02-16T15:11:02.334Z,20.19
2019-02-16T15:13:30.955Z,19.95
2019-02-16T15:15:59.806Z,19.80
2019-02-16T15:18:28.431Z,19.54
2019-02-16T15:20:57.015Z,19.96
2019-02-16T15:23:25.647Z,20.67
2019-02-16T15:26:00.829Z,20.76
2019-02-16T15:28:24.581Z,20.57
2019-02-16T15:30:53.286Z,20.72
2019-02-16T15:33:21.895Z,19.64
2019-02-16T15:35:50.485Z,19.64
2019-02-16T15:38:19.088Z,19.30
2019-02-16T15:40:47.696Z,19.63
2019-02-16T15:43:16.301Z,19.27
2019-02-16T15:45:46.861Z,19.21
2019-02-16T15:48:15.728Z,18.99
2019-02-16T15:50:44.329Z,18.92
2019-02-16T15:53:12.903Z,19.37
2019-02-16T15:55:41.505Z,18.52
2019-02-16T15:58:10.168Z,17.97
2019-02-16T16:00:38.898Z,17.91
2019-02-16T16:03:07.573Z,17.88
2019-02-16T16:05:36.219Z,17.60
2019-02-16T16:08:21.715Z,18.05
2019-02-16T16:11:07.083Z,17.65
2019-02-16T16:14:07.005Z,17.81
2019-02-16T16:16:43.770Z,17.31
2019-02-16T16:19:24.397Z,17.40
2019-02-16T16:22:14.789Z,17.25
2019-02-16T16:25:08.901Z,17.33
2019-02-16T16:27:47.270Z,16.94
2019-02-16T16:30:32.988Z,15.53
2019-02-16T16:33:19.343Z,15.52
2019-02-16T16:36:08.348Z,16.25
2019-02-16T16:38:53.763Z,16.13
2019-02-16T16:41:41.889Z,16.36
2019-02-16T16:44:28.251Z,16.01
2019-02-16T16:47:14.692Z,16.07
2019-02-16T16:50:08.501Z,16.12
2019-02-16T16:53:02.110Z,14.93
2019-02-16T16:55:39.441Z,14.63
2019-02-16T16:58:27.459Z,14.34
2019-02-16T17:01:21.417Z,14.34
2019-02-16T17:03:58.746Z,14.19
2019-02-16T17:06:46.018Z,14.20
2019-02-16T17:09:41.043Z,13.39
2019-02-16T17:12:34.662Z,13.38
2019-02-16T17:15:08.800Z,13.78
2019-02-16T17:17:46.964Z,13.78
2019-02-16T17:20:28.749Z,13.43
2019-02-16T17:23:25.429Z,13.43
2019-02-16T17:26:04.775Z,13.40
2019-02-16T17:28:45.311Z,13.06
2019-02-16T17:31:40.612Z,13.06
2019-02-16T17:34:46.265Z,12.83
2019-02-16T17:37:26.788Z,13.15
2019-02-16T17:40:20.424Z,12.84
2019-02-16T17:43:10.842Z,12.94
2019-02-16T17:45:52.944Z,12.71
2019-02-16T17:48:30.259Z,13.24
2019-02-16T17:51:23.140Z,12.74
2019-02-16T17:54:09.741Z,12.92
2019-02-16T17:56:53.851Z,13.10
2019-02-16T17:59:32.049Z,12.38
2019-02-16T18:02:14.658Z,12.84
2019-02-16T18:05:07.471Z,12.84
2019-02-16T18:07:49.517Z,12.71
2019-02-16T18:10:33.294Z,12.40
2019-02-16T18:13:08.342Z,12.47
2019-02-16T18:15:54.971Z,12.16
2019-02-16T18:18:34.768Z,11.49
2019-02-16T18:21:09.582Z,11.05
2019-02-16T18:23:42.973Z,11.21
2019-02-16T18:26:29.461Z,11.28
2019-02-16T18:29:25.021Z,11.75
2019-02-16T18:32:08.812Z,11.22
2019-02-16T18:34:55.135Z,11.35
2019-02-16T18:37:29.783Z,11.01
2019-02-16T18:40:05.789Z,11.37
2019-02-16T18:43:11.782Z,11.34
2019-02-16T18:46:01.471Z,11.21
2019-02-16T18:48:49.447Z,11.18
2019-02-16T18:51:31.780Z,11.18
2019-02-16T18:54:11.472Z,11.29
2019-02-16T18:57:06.352Z,11.38
2019-02-16T18:59:50.421Z,11.02
2019-02-16T19:02:50.076Z,11.25
2019-02-16T19:05:37.661Z,11.02
2019-02-16T19:08:31.217Z,11.23
2019-02-16T19:11:19.964Z,11.04
2019-02-16T19:14:06.247Z,11.10
2019-02-16T19:17:00.877Z,11.14
2019-02-16T19:19:38.977Z,11.02
2019-02-16T19:22:32.820Z,11.06
2019-02-16T19:25:20.669Z,11.01
2019-02-16T19:28:11.932Z,11.31
2019-02-16T19:30:56.729Z,11.08
2019-02-16T19:33:32.324Z,11.31
2019-02-16T19:36:15.575Z,11.13
2019-02-16T19:39:12.344Z,10.73
2019-02-16T19:41:54.672Z,10.38
2019-02-16T19:44:36.784Z,10.56
2019-02-16T19:47:17.591Z,10.76
2019-02-16T19:50:03.239Z,10.59
2019-02-16T19:52:51.146Z,10.96
2019-02-16T19:55:41.820Z,10.57
2019-02-16T19:58:44.631Z,10.70
2019-02-16T20:01:31.150Z,10.55
2019-02-16T20:04:10.220Z,10.50
2019-02-16T20:06:47.651Z,10.31
2019-02-16T20:09:21.991Z,10.33
2019-02-16T20:12:12.548Z,10.30
2019-02-16T20:14:56.854Z,10.38
2019-02-16T20:17:51.006Z,10.13
2019-02-16T20:20:40.388Z,10.30
2019-02-16T20:23:21.611Z,10.23
2019-02-16T20:26:12.551Z,10.12
2019-02-16T20:29:09.124Z,10.02
2019-02-16T20:31:43.322Z,10.03
2019-02-16T20:34:37.084Z,9.91
2019-02-16T20:37:30.833Z,10.19
2019-02-16T20:40:13.815Z,9.94
2019-02-16T20:42:59.194Z,9.86
2019-02-16T20:45:55.737Z,9.84
2019-02-16T20:49:01.687Z,9.59
2019-02-16T20:51:48.110Z,10.08
2019-02-16T20:54:24.759Z,10.15
2019-02-16T20:57:14.755Z,10.12
2019-02-16T21:00:14.892Z,10.16
2019-02-16T21:02:52.694Z,9.90
2019-02-16T21:05:34.526Z,9.78
2019-02-16T21:08:31.113Z,9.94
2019-02-16T21:11:33.665Z,9.65
2019-02-16T21:14:08.575Z,9.88
2019-02-16T21:16:54.925Z,9.74
2019-02-16T21:19:39.175Z,9.88
2019-02-16T21:22:16.929Z,9.87
2019-02-16T21:25:04.811Z,9.88
2019-02-16T21:28:04.436Z,9.61
2019-02-16T21:30:41.983Z,9.48
2019-02-16T21:33:36.440Z,9.98
2019-02-16T21:36:14.784Z,9.59
2019-02-16T21:39:03.206Z,9.48
2019-02-16T21:41:48.109Z,9.43
2019-02-16T21:44:38.649Z,8.99
2019-02-16T21:47:26.207Z,9.18
2019-02-16T21:50:07.754Z,9.30
2019-02-16T21:52:44.876Z,9.13
2019-02-16T21:55:29.300Z,8.80
2019-02-16T21:58:10.595Z,8.88
2019-02-16T22:00:57.668Z,8.84
2019-02-16T22:03:43.989Z,8.99
2019-02-16T22:06:31.593Z,8.94
2019-02-16T22:09:19.457Z,8.73
2019-02-16T22:11:57.131Z,8.77
2019-02-16T22:14:25.729Z,8.68
2019-02-16T22:16:54.846Z,8.59
2019-02-16T22:19:23.489Z,8.87
2019-02-16T22:21:52.070Z,8.78
2019-02-16T22:24:20.661Z,8.78
2019-02-16T22:26:49.269Z,8.86
2019-02-16T22:29:18.110Z,8.78
2019-02-16T22:31:46.758Z,8.59
2019-02-16T22:34:15.686Z,8.76
2019-02-16T22:36:45.265Z,8.52
2019-02-16T22:39:13.843Z,8.67
2019-02-16T22:41:42.438Z,8.52
2019-02-16T22:44:11.042Z,8.67
2019-02-16T22:46:39.660Z,8.65
2019-02-16T22:49:08.283Z,8.69
2019-02-16T22:51:36.867Z,8.27
2019-02-16T22:54:05.449Z,8.08
2019-02-16T22:56:34.100Z,8.06
2019-02-16T22:59:02.914Z,8.28
2019-02-16T23:01:31.941Z,8.42
2019-02-16T23:04:00.575Z,8.45
2019-02-16T23:06:29.155Z,8.47
2019-02-16T23:08:57.761Z,8.13
2019-02-16T23:11:26.373Z,8.45
2019-02-16T23:13:54.953Z,8.41
2019-02-16T23:16:23.583Z,8.42
2019-02-16T23:18:52.418Z,8.21
2019-02-16T23:21:21.014Z,8.13
2019-02-16T23:23:49.612Z,8.25
2019-02-16T23:26:18.199Z,8.16
2019-02-16T23:28:46.789Z,8.30
2019-02-16T23:31:15.673Z,8.17
2019-02-16T23:33:44.557Z,8.33
2019-02-16T23:36:13.149Z,8.31
2019-02-16T23:38:41.805Z,8.38
2019-02-16T23:41:10.413Z,8.30
2019-02-16T23:43:39.310Z,8.39
2019-02-16T23:46:07.899Z,8.25
2019-02-16T23:48:36.765Z,8.17
2019-02-16T23:51:05.654Z,8.47
2019-02-16T23:53:34.262Z,8.30
2019-02-16T23:56:03.348Z,8.33
2019-02-16T23:58:31.941Z,8.18
